createdAt,value
2016-10-17T00:00:12.027Z,0
2016-10-17T00:01:12.052Z,0
2016-10-17T00:02:12.072Z,0
2016-10-17T00:03:12.089Z,0
2016-10-17T00:04:12.111Z,0
2016-10-17T00:05:12.137Z,0
2016-10-17T00:06:27.080Z,0
2016-10-17T00:07:12.181Z,0
2016-10-17T00:08:12.201Z,0
2016-10-17T00:09:27.136Z,0
2016-10-17T00:10:12.237Z,0
2016-10-17T00:11:12.265Z,0
2016-10-17T00:12:12.527Z,0
2016-10-17T00:13:12.295Z,0
2016-10-17T00:14:12.318Z,0
2016-10-17T00:15:12.337Z,0
2016-10-17T00:16:12.356Z,0
2016-10-17T00:17:12.383Z,0
2016-10-17T00:18:12.406Z,0
2016-10-17T00:19:12.419Z,0
2016-10-17T00:20:12.743Z,0
2016-10-17T00:21:12.457Z,0
2016-10-17T00:22:12.488Z,0
2016-10-17T00:23:12.508Z,0
2016-10-17T00:25:12.546Z,0
2016-10-17T00:26:12.565Z,0
2016-10-17T00:27:12.593Z,0
2016-10-17T00:28:12.619Z,0
2016-10-17T00:29:12.625Z,0
2016-10-17T00:30:12.659Z,0
2016-10-17T00:31:12.720Z,0
2016-10-17T00:32:12.741Z,0
2016-10-17T00:33:12.704Z,0
2016-10-17T00:35:12.767Z,0
2016-10-17T00:36:12.827Z,0
2016-10-17T00:37:12.806Z,0
2016-10-17T00:40:12.859Z,0
2016-10-17T00:41:12.928Z,0
2016-10-17T00:42:12.909Z,0
2016-10-17T00:43:12.919Z,0
2016-10-17T00:44:13.245Z,0
2016-10-17T00:45:12.963Z,0
2016-10-17T00:46:12.989Z,0
2016-10-17T00:47:13.048Z,0
2016-10-17T00:48:27.947Z,0
2016-10-17T00:49:27.969Z,0
2016-10-17T00:50:13.083Z,0
2016-10-17T00:51:13.098Z,0
2016-10-17T00:52:13.104Z,0
2016-10-17T00:53:13.130Z,0
2016-10-17T00:54:28.068Z,0
2016-10-17T00:55:13.217Z,0
2016-10-17T00:56:28.111Z,0
2016-10-17T00:57:13.267Z,0
2016-10-17T00:58:13.238Z,0
2016-10-17T00:59:13.249Z,0
2016-10-17T01:01:28.221Z,0
2016-10-17T01:02:13.313Z,0
2016-10-17T01:03:13.337Z,0
2016-10-17T01:04:13.363Z,0
2016-10-17T01:05:13.377Z,0
2016-10-17T01:06:13.393Z,0
2016-10-17T01:07:13.414Z,0
2016-10-17T01:08:13.686Z,0
2016-10-17T01:09:13.456Z,0
2016-10-17T01:10:13.476Z,0
2016-10-17T01:11:13.511Z,0
2016-10-17T01:13:13.537Z,0
2016-10-17T01:14:13.564Z,0
2016-10-17T01:15:13.588Z,0
2016-10-17T01:16:13.598Z,0
2016-10-17T01:17:13.629Z,0
2016-10-17T01:18:13.650Z,0
2016-10-17T01:19:13.668Z,0
2016-10-17T01:20:13.710Z,0
2016-10-17T01:21:13.714Z,0
2016-10-17T01:22:13.730Z,0
2016-10-17T01:23:28.672Z,0
2016-10-17T01:24:13.777Z,0
2016-10-17T01:25:13.792Z,0
2016-10-17T01:26:13.816Z,0
2016-10-17T01:27:28.753Z,0
2016-10-17T01:28:28.773Z,0
2016-10-17T01:29:13.871Z,0
2016-10-17T01:30:13.896Z,0
2016-10-17T01:31:13.915Z,0
2016-10-17T01:34:13.986Z,0
2016-10-17T01:35:28.925Z,0
2016-10-17T01:36:14.565Z,0
2016-10-17T01:37:14.039Z,0
2016-10-17T01:38:14.060Z,0
2016-10-17T01:39:29.003Z,0
2016-10-17T01:40:29.023Z,0
2016-10-17T01:41:29.047Z,0
2016-10-17T01:42:14.142Z,0
2016-10-17T01:43:14.161Z,0
2016-10-17T01:44:29.111Z,0
2016-10-17T01:45:14.199Z,0
2016-10-17T01:46:14.233Z,0
2016-10-17T01:47:14.252Z,0
2016-10-17T01:48:14.274Z,0
2016-10-17T01:49:14.292Z,0
2016-10-17T01:50:14.308Z,0
2016-10-17T01:51:14.330Z,0
2016-10-17T01:52:29.276Z,0
2016-10-17T01:53:14.368Z,0
2016-10-17T01:54:14.390Z,0
2016-10-17T01:56:14.445Z,0
2016-10-17T01:57:29.371Z,0
2016-10-17T01:58:14.479Z,0
2016-10-17T01:59:29.425Z,0
2016-10-17T02:00:14.529Z,0
2016-10-17T02:01:14.544Z,0
2016-10-17T02:02:14.557Z,0
2016-10-17T02:03:14.579Z,0
2016-10-17T02:04:14.603Z,0
2016-10-17T02:05:14.614Z,0
2016-10-17T02:06:14.640Z,0
2016-10-17T02:07:14.660Z,0
2016-10-17T02:08:14.682Z,0
2016-10-17T02:09:14.716Z,0
2016-10-17T02:10:14.718Z,0
2016-10-17T02:11:14.749Z,0
2016-10-17T02:12:14.770Z,0
2016-10-17T02:13:14.793Z,0
2016-10-17T02:14:14.808Z,0
2016-10-17T02:15:14.828Z,0
2016-10-17T02:17:14.864Z,0
2016-10-17T02:18:14.891Z,0
2016-10-17T02:20:14.926Z,0
2016-10-17T02:21:14.954Z,0
2016-10-17T02:22:14.972Z,0
2016-10-17T02:23:14.991Z,0
2016-10-17T02:24:15.009Z,0
2016-10-17T02:25:15.282Z,0
2016-10-17T02:26:29.996Z,0
2016-10-17T02:27:15.073Z,0
2016-10-17T02:28:15.092Z,0
2016-10-17T02:29:15.129Z,0
2016-10-17T02:30:15.145Z,0
2016-10-17T02:31:30.082Z,0
2016-10-17T02:32:15.434Z,0
2016-10-17T02:33:15.501Z,0
2016-10-17T02:34:15.220Z,0
2016-10-17T02:35:15.553Z,0
2016-10-17T02:36:30.207Z,0
2016-10-17T02:37:15.284Z,0
2016-10-17T02:38:15.303Z,0
2016-10-17T02:39:15.323Z,0
2016-10-17T02:40:15.344Z,0
2016-10-17T02:41:15.365Z,0
2016-10-17T02:42:15.383Z,0
2016-10-17T02:43:15.413Z,0
2016-10-17T02:44:15.433Z,0
2016-10-17T02:45:15.443Z,0
2016-10-17T02:46:15.466Z,0
2016-10-17T02:48:15.532Z,0
2016-10-17T02:49:30.462Z,0
2016-10-17T02:50:15.557Z,0
2016-10-17T02:52:15.598Z,0
2016-10-17T02:53:30.542Z,0
2016-10-17T02:54:15.632Z,0
2016-10-17T02:55:30.580Z,0
2016-10-17T02:56:15.681Z,0
2016-10-17T02:57:15.700Z,0
2016-10-17T02:58:15.716Z,0
2016-10-17T02:59:15.753Z,0
2016-10-17T03:00:15.759Z,0
2016-10-17T03:01:30.701Z,0
2016-10-17T03:02:30.718Z,0
2016-10-17T03:03:30.742Z,0
2016-10-17T03:04:15.849Z,0
2016-10-17T03:05:15.861Z,0
2016-10-17T03:06:15.877Z,0
2016-10-17T03:07:15.928Z,0
2016-10-17T03:09:15.949Z,0
2016-10-17T03:10:15.967Z,0
2016-10-17T03:11:15.996Z,0
2016-10-17T03:12:16.021Z,0
2016-10-17T03:13:16.027Z,0
2016-10-17T03:14:16.054Z,0
2016-10-17T03:15:16.067Z,0
2016-10-17T03:16:16.135Z,0
2016-10-17T03:17:16.111Z,0
2016-10-17T03:18:16.132Z,0
2016-10-17T03:19:31.076Z,0
2016-10-17T03:20:16.177Z,0
2016-10-17T03:21:16.202Z,0
2016-10-17T03:23:16.239Z,0
2016-10-17T03:24:16.268Z,0
2016-10-17T03:25:16.277Z,0
2016-10-17T03:26:16.296Z,0
2016-10-17T03:27:16.317Z,0
2016-10-17T03:28:16.337Z,0
2016-10-17T03:29:16.355Z,0
2016-10-17T03:30:31.308Z,0
2016-10-17T03:31:16.402Z,0
2016-10-17T03:33:16.447Z,0
2016-10-17T03:34:46.618Z,0
2016-10-17T03:35:17.033Z,0
2016-10-17T03:36:16.805Z,0
2016-10-17T03:37:16.523Z,0
2016-10-17T03:38:16.551Z,0
2016-10-17T03:39:16.562Z,0
2016-10-17T03:40:16.586Z,0
2016-10-17T03:41:16.913Z,0
2016-10-17T03:42:16.630Z,0
2016-10-17T03:43:16.651Z,0
2016-10-17T03:44:16.664Z,0
2016-10-17T03:45:16.688Z,0
2016-10-17T03:46:31.632Z,0
2016-10-17T03:47:16.734Z,0
2016-10-17T03:48:16.755Z,0
2016-10-17T03:49:16.779Z,0
2016-10-17T03:50:16.798Z,0
2016-10-17T03:51:16.829Z,0
2016-10-17T03:52:16.838Z,0
2016-10-17T03:53:17.159Z,0
2016-10-17T03:54:16.880Z,0
2016-10-17T03:55:16.900Z,0
2016-10-17T03:56:17.214Z,0
2016-10-17T03:57:17.537Z,0
2016-10-17T04:00:17.001Z,0
2016-10-17T04:01:17.015Z,0
2016-10-17T04:02:17.044Z,0
2016-10-17T04:03:31.979Z,0
2016-10-17T04:04:17.084Z,0
2016-10-17T04:05:17.405Z,0
2016-10-17T04:06:32.047Z,0
2016-10-17T04:07:17.147Z,0
2016-10-17T04:08:17.162Z,0
2016-10-17T04:09:17.179Z,0
2016-10-17T04:10:17.208Z,0
2016-10-17T04:12:17.252Z,0
2016-10-17T04:13:17.272Z,0
2016-10-17T04:14:17.287Z,0
2016-10-17T04:15:18.010Z,0
2016-10-17T04:16:17.324Z,0
2016-10-17T04:17:17.649Z,0
2016-10-17T04:18:17.672Z,0
2016-10-17T04:19:32.308Z,0
2016-10-17T04:20:17.714Z,0
2016-10-17T04:21:17.726Z,0
2016-10-17T04:22:32.376Z,0
2016-10-17T04:23:17.463Z,0
2016-10-17T04:25:17.811Z,0
2016-10-17T04:26:17.532Z,0
2016-10-17T04:27:17.551Z,0
2016-10-17T04:28:17.574Z,0
2016-10-17T04:29:17.593Z,0
2016-10-17T04:30:17.612Z,0
2016-10-17T04:31:17.643Z,0
2016-10-17T04:32:17.655Z,0
2016-10-17T04:33:32.595Z,0
2016-10-17T04:34:32.613Z,0
2016-10-17T04:36:17.732Z,0
2016-10-17T04:37:17.749Z,0
2016-10-17T04:38:32.693Z,0
2016-10-17T04:39:17.800Z,0
2016-10-17T04:40:17.817Z,0
2016-10-17T04:41:17.832Z,0
2016-10-17T04:42:17.856Z,0
2016-10-17T04:43:18.121Z,0
2016-10-17T04:44:18.202Z,0
2016-10-17T04:45:17.972Z,0
2016-10-17T04:47:18.204Z,0
2016-10-17T04:48:18.278Z,0
2016-10-17T04:49:18.008Z,0
2016-10-17T04:50:18.019Z,0
2016-10-17T04:51:18.039Z,0
2016-10-17T04:52:18.063Z,0
2016-10-17T04:53:18.079Z,0
2016-10-17T04:54:33.011Z,0
2016-10-17T04:55:18.118Z,0
2016-10-17T04:56:18.144Z,0
2016-10-17T04:57:18.458Z,0
2016-10-17T04:58:18.183Z,0
2016-10-17T04:59:18.217Z,0
2016-10-17T05:00:33.144Z,0
2016-10-17T05:01:18.236Z,0
2016-10-17T05:02:33.185Z,0
2016-10-17T05:03:18.282Z,0
2016-10-17T05:04:18.302Z,0
2016-10-17T05:05:33.244Z,0
2016-10-17T05:06:18.337Z,0
2016-10-17T05:07:18.379Z,0
2016-10-17T05:08:33.299Z,0
2016-10-17T05:09:33.328Z,0
2016-10-17T05:10:18.429Z,0
2016-10-17T05:11:18.440Z,0
2016-10-17T05:12:18.462Z,0
2016-10-17T05:13:18.482Z,4
2016-10-17T05:14:18.502Z,4
2016-10-17T05:15:18.521Z,4
2016-10-17T05:16:18.558Z,0
2016-10-17T05:17:18.562Z,4
2016-10-17T05:18:18.584Z,4
2016-10-17T05:19:18.600Z,4
2016-10-17T05:20:33.545Z,4
2016-10-17T05:21:18.647Z,8
2016-10-17T05:22:18.655Z,4
2016-10-17T05:23:18.678Z,8
2016-10-17T05:24:18.698Z,8
2016-10-17T05:25:18.722Z,8
2016-10-17T05:26:18.740Z,12
2016-10-17T05:27:18.766Z,12
2016-10-17T05:28:18.778Z,12
2016-10-17T05:29:18.804Z,16
2016-10-17T05:30:18.821Z,16
2016-10-17T05:31:18.850Z,16
2016-10-17T05:32:18.862Z,24
2016-10-17T05:33:18.881Z,24
2016-10-17T05:34:33.828Z,28
2016-10-17T05:35:18.917Z,24
2016-10-17T05:36:18.945Z,32
2016-10-17T05:37:18.973Z,32
2016-10-17T05:38:18.980Z,32
2016-10-17T05:39:19.322Z,40
2016-10-17T05:40:19.030Z,40
2016-10-17T05:41:33.960Z,48
2016-10-17T05:42:19.061Z,48
2016-10-17T05:43:19.084Z,48
2016-10-17T05:45:19.132Z,56
2016-10-17T05:46:19.138Z,60
2016-10-17T05:47:19.162Z,64
2016-10-17T05:48:19.175Z,68
2016-10-17T05:49:19.216Z,68
2016-10-17T05:50:19.226Z,80
2016-10-17T05:51:19.247Z,80
2016-10-17T05:52:34.183Z,84
2016-10-17T05:53:19.317Z,92
2016-10-17T05:54:19.297Z,96
2016-10-17T05:55:19.322Z,100
2016-10-17T05:56:19.340Z,112
2016-10-17T05:57:34.284Z,120
2016-10-17T05:58:19.396Z,124
2016-10-17T05:59:19.407Z,128
2016-10-17T06:00:19.415Z,148
2016-10-17T06:01:19.446Z,152
2016-10-17T06:02:19.461Z,156
2016-10-17T06:03:19.485Z,160
2016-10-17T06:04:19.804Z,172
2016-10-17T06:05:19.516Z,164
2016-10-17T06:06:19.538Z,168
2016-10-17T06:07:19.558Z,188
2016-10-17T06:08:19.578Z,192
2016-10-17T06:09:19.599Z,200
2016-10-17T06:10:34.556Z,208
2016-10-17T06:11:19.637Z,208
2016-10-17T06:12:19.656Z,212
2016-10-17T06:13:34.601Z,216
2016-10-17T06:14:34.621Z,244
2016-10-17T06:15:19.726Z,244
2016-10-17T06:16:19.734Z,260
2016-10-17T06:17:19.754Z,260
2016-10-17T06:19:19.798Z,280
2016-10-17T06:20:19.826Z,328
2016-10-17T06:21:19.842Z,332
2016-10-17T06:22:19.863Z,336
2016-10-17T06:23:19.883Z,356
2016-10-17T06:24:19.903Z,368
2016-10-17T06:25:34.844Z,380
2016-10-17T06:26:19.935Z,384
2016-10-17T06:27:19.957Z,380
2016-10-17T06:28:20.274Z,380
2016-10-17T06:29:34.920Z,392
2016-10-17T06:30:20.021Z,384
2016-10-17T06:31:20.045Z,380
2016-10-17T06:32:20.061Z,412
2016-10-17T06:33:20.086Z,440
2016-10-17T06:34:20.097Z,456
2016-10-17T06:35:20.123Z,460
2016-10-17T06:36:20.134Z,472
2016-10-17T06:37:20.162Z,492
2016-10-17T06:38:20.182Z,508
2016-10-17T06:39:20.190Z,524
2016-10-17T06:40:20.210Z,560
2016-10-17T06:41:20.238Z,552
2016-10-17T06:42:20.274Z,504
2016-10-17T06:43:20.271Z,500
2016-10-17T06:45:20.311Z,480
2016-10-17T06:46:20.335Z,476
2016-10-17T06:47:20.361Z,480
2016-10-17T06:48:20.379Z,476
2016-10-17T06:49:20.691Z,496
2016-10-17T06:50:20.412Z,508
2016-10-17T06:51:20.439Z,520
2016-10-17T06:52:35.379Z,520
2016-10-17T06:53:20.476Z,520
2016-10-17T06:54:20.495Z,536
2016-10-17T06:55:35.738Z,520
2016-10-17T06:56:20.842Z,548
2016-10-17T06:57:20.558Z,616
2016-10-17T06:58:20.579Z,632
2016-10-17T06:59:20.612Z,616
2016-10-17T07:00:20.616Z,632
2016-10-17T07:01:20.634Z,676
2016-10-17T07:02:20.648Z,680
2016-10-17T07:03:20.710Z,696
2016-10-17T07:04:20.690Z,740
2016-10-17T07:05:20.714Z,784
2016-10-17T07:06:20.741Z,804
2016-10-17T07:07:20.752Z,804
2016-10-17T07:08:20.766Z,792
2016-10-17T07:09:20.791Z,768
2016-10-17T07:10:20.806Z,788
2016-10-17T07:11:35.756Z,800
2016-10-17T07:12:20.845Z,824
2016-10-17T07:14:20.896Z,864
2016-10-17T07:15:20.909Z,836
2016-10-17T07:16:35.854Z,820
2016-10-17T07:17:20.963Z,804
2016-10-17T07:18:20.977Z,852
2016-10-17T07:19:36.163Z,876
2016-10-17T07:20:21.008Z,872
2016-10-17T07:21:21.036Z,892
2016-10-17T07:22:21.062Z,892
2016-10-17T07:23:21.068Z,932
2016-10-17T07:25:21.118Z,864
2016-10-17T07:26:21.129Z,908
2016-10-17T07:27:21.149Z,880
2016-10-17T07:28:36.092Z,856
2016-10-17T07:29:36.111Z,860
2016-10-17T07:30:21.215Z,860
2016-10-17T07:31:21.232Z,864
2016-10-17T07:32:36.180Z,948
2016-10-17T07:33:21.277Z,1020
2016-10-17T07:34:21.300Z,1052
2016-10-17T07:35:21.310Z,1068
2016-10-17T07:36:21.334Z,1068
2016-10-17T07:37:21.355Z,1096
2016-10-17T07:38:21.365Z,1132
2016-10-17T07:39:21.397Z,1140
2016-10-17T07:40:21.446Z,1116
2016-10-17T07:41:21.435Z,1080
2016-10-17T07:42:21.450Z,1108
2016-10-17T07:43:36.396Z,1100
2016-10-17T07:44:21.494Z,1096
2016-10-17T07:45:21.516Z,1064
2016-10-17T07:46:21.534Z,1076
2016-10-17T07:47:21.958Z,1144
2016-10-17T07:48:36.489Z,1148
2016-10-17T07:49:21.592Z,1156
2016-10-17T07:50:21.620Z,1104
2016-10-17T07:51:21.642Z,936
2016-10-17T07:52:21.651Z,868
2016-10-17T07:53:21.672Z,796
2016-10-17T07:54:21.696Z,780
2016-10-17T07:55:21.718Z,900
2016-10-17T07:56:21.727Z,1128
2016-10-17T07:58:21.774Z,1040
2016-10-17T07:59:21.789Z,960
2016-10-17T08:00:21.816Z,856
2016-10-17T08:01:36.752Z,944
2016-10-17T08:02:21.853Z,976
2016-10-17T08:03:21.873Z,936
2016-10-17T08:04:36.813Z,916
2016-10-17T08:05:21.916Z,896
2016-10-17T08:06:21.929Z,828
2016-10-17T08:07:21.978Z,764
2016-10-17T08:08:21.981Z,784
2016-10-17T08:09:21.988Z,936
2016-10-17T08:10:22.036Z,1168
2016-10-17T08:11:22.029Z,1256
2016-10-17T08:12:22.043Z,1236
2016-10-17T08:13:22.077Z,1168
2016-10-17T08:14:22.090Z,1144
2016-10-17T08:15:22.110Z,1088
2016-10-17T08:16:22.125Z,1092
2016-10-17T08:17:22.149Z,1108
2016-10-17T08:18:37.091Z,1164
2016-10-17T08:19:37.112Z,1240
2016-10-17T08:20:22.219Z,1228
2016-10-17T08:22:22.252Z,1360
2016-10-17T08:23:22.269Z,1452
2016-10-17T08:24:22.298Z,1480
2016-10-17T08:25:22.321Z,1508
2016-10-17T08:26:22.337Z,1484
2016-10-17T08:27:22.355Z,1420
2016-10-17T08:28:22.386Z,1472
2016-10-17T08:29:37.318Z,1516
2016-10-17T08:30:22.511Z,1560
2016-10-17T08:31:37.357Z,1504
2016-10-17T08:32:37.955Z,1544
2016-10-17T08:33:37.700Z,1608
2016-10-17T08:34:22.495Z,1584
2016-10-17T08:35:37.435Z,1572
2016-10-17T08:36:37.456Z,1640
2016-10-17T08:37:22.561Z,1640
2016-10-17T08:38:22.578Z,1620
2016-10-17T08:39:22.590Z,1624
2016-10-17T08:40:22.625Z,1576
2016-10-17T08:41:22.638Z,1640
2016-10-17T08:42:22.656Z,1664
2016-10-17T08:43:22.675Z,1700
2016-10-17T08:44:22.701Z,1764
2016-10-17T08:45:22.723Z,1692
2016-10-17T08:46:37.664Z,1696
2016-10-17T08:47:22.762Z,1664
2016-10-17T08:48:23.021Z,1620
2016-10-17T08:49:22.795Z,1588
2016-10-17T08:50:22.817Z,1556
2016-10-17T08:51:37.754Z,1596
2016-10-17T08:52:22.858Z,1708
2016-10-17T08:53:22.882Z,1592
2016-10-17T08:54:22.903Z,1584
2016-10-17T08:55:22.927Z,1552
2016-10-17T08:56:22.949Z,1596
2016-10-17T08:57:22.956Z,1648
2016-10-17T08:58:22.982Z,1704
2016-10-17T08:59:23.003Z,1720
2016-10-17T09:00:23.065Z,1696
2016-10-17T09:01:23.039Z,1764
2016-10-17T09:02:23.059Z,1800
2016-10-17T09:03:23.085Z,1820
2016-10-17T09:04:23.102Z,1832
2016-10-17T09:05:23.127Z,1828
2016-10-17T09:06:23.148Z,1928
2016-10-17T09:07:38.086Z,1868
2016-10-17T09:08:23.184Z,1968
2016-10-17T09:09:23.201Z,2124
2016-10-17T09:10:23.224Z,2212
2016-10-17T09:11:23.248Z,2232
2016-10-17T09:12:23.272Z,2224
2016-10-17T09:13:23.283Z,2256
2016-10-17T09:14:23.321Z,2320
2016-10-17T09:15:23.326Z,2340
2016-10-17T09:16:23.347Z,2420
2016-10-17T09:17:23.374Z,2412
2016-10-17T09:18:23.396Z,2412
2016-10-17T09:19:23.412Z,2436
2016-10-17T09:20:23.728Z,2380
2016-10-17T09:21:23.456Z,2520
2016-10-17T09:22:23.475Z,2524
2016-10-17T09:25:23.536Z,2740
2016-10-17T09:26:23.558Z,2740
2016-10-17T09:27:23.579Z,2756
2016-10-17T09:28:23.849Z,2792
2016-10-17T09:29:23.616Z,2912
2016-10-17T09:30:23.639Z,2956
2016-10-17T09:31:23.682Z,2780
2016-10-17T09:32:23.985Z,2636
2016-10-17T09:33:23.704Z,2484
2016-10-17T09:34:23.719Z,2396
2016-10-17T09:35:23.993Z,2212
2016-10-17T09:36:23.758Z,2048
2016-10-17T09:37:23.820Z,1968
2016-10-17T09:38:23.804Z,1996
2016-10-17T09:39:38.738Z,2020
2016-10-17T09:40:23.844Z,2124
2016-10-17T09:41:23.872Z,2216
2016-10-17T09:42:23.878Z,2172
2016-10-17T09:43:23.902Z,2044
2016-10-17T09:44:23.925Z,1820
2016-10-17T09:45:23.964Z,1812
2016-10-17T09:46:23.967Z,1968
2016-10-17T09:47:38.916Z,2052
2016-10-17T09:48:39.233Z,2056
2016-10-17T09:49:24.034Z,1956
2016-10-17T09:50:24.086Z,1868
2016-10-17T09:51:38.996Z,1680
2016-10-17T09:52:24.097Z,1764
2016-10-17T09:53:24.114Z,1776
2016-10-17T09:54:39.060Z,1728
2016-10-17T09:55:24.154Z,1680
2016-10-17T09:56:24.220Z,1756
2016-10-17T09:57:24.204Z,1868
2016-10-17T09:58:24.214Z,1960
2016-10-17T09:59:39.167Z,2136
2016-10-17T10:00:39.185Z,2252
2016-10-17T10:01:24.315Z,2324
2016-10-17T10:02:24.300Z,2352
2016-10-17T10:03:24.319Z,2380
2016-10-17T10:04:24.344Z,2436
2016-10-17T10:05:24.366Z,2416
2016-10-17T10:06:24.377Z,2424
2016-10-17T10:07:24.407Z,2428
2016-10-17T10:08:39.344Z,2368
2016-10-17T10:09:24.448Z,2376
2016-10-17T10:11:39.402Z,2304
2016-10-17T10:12:24.805Z,2324
2016-10-17T10:13:24.525Z,2320
2016-10-17T10:14:24.549Z,2364
2016-10-17T10:15:24.569Z,2408
2016-10-17T10:16:24.600Z,2408
2016-10-17T10:17:24.609Z,2452
2016-10-17T10:18:39.556Z,2440
2016-10-17T10:19:24.656Z,2348
2016-10-17T10:20:24.764Z,2216
2016-10-17T10:21:39.919Z,2260
2016-10-17T10:22:24.706Z,2412
2016-10-17T10:23:39.656Z,2516
2016-10-17T10:24:25.042Z,2504
2016-10-17T10:25:24.765Z,2600
2016-10-17T10:26:39.716Z,2624
2016-10-17T10:27:24.817Z,2672
2016-10-17T10:28:24.836Z,2476
2016-10-17T10:29:24.912Z,2544
2016-10-17T10:30:24.879Z,2576
2016-10-17T10:31:24.900Z,2444
2016-10-17T10:32:24.912Z,2240
2016-10-17T10:33:24.939Z,2212
2016-10-17T10:34:24.965Z,2152
2016-10-17T10:35:24.985Z,2304
2016-10-17T10:36:25.006Z,2252
2016-10-17T10:37:25.022Z,2368
2016-10-17T10:38:25.048Z,2668
2016-10-17T10:39:25.057Z,2924
2016-10-17T10:40:40.007Z,3032
2016-10-17T10:41:25.117Z,3000
2016-10-17T10:42:40.050Z,3012
2016-10-17T10:43:25.148Z,2988
2016-10-17T10:44:25.167Z,2988
2016-10-17T10:45:25.183Z,2816
2016-10-17T10:46:25.249Z,2480
2016-10-17T10:47:25.233Z,2272
2016-10-17T10:48:25.260Z,2072
2016-10-17T10:50:40.222Z,2084
2016-10-17T10:51:25.314Z,2020
2016-10-17T10:52:40.294Z,1892
2016-10-17T10:54:25.376Z,1752
2016-10-17T10:55:25.403Z,1752
2016-10-17T10:58:40.385Z,1588
2016-10-17T10:59:25.734Z,1588
2016-10-17T11:00:25.507Z,1680
2016-10-17T11:01:25.522Z,1956
2016-10-17T11:02:25.548Z,2200
2016-10-17T11:04:25.602Z,2420
2016-10-17T11:05:25.613Z,2556
2016-10-17T11:06:25.637Z,2820
2016-10-17T11:08:25.671Z,2684
2016-10-17T11:09:25.690Z,2476
2016-10-17T11:10:25.715Z,2608
2016-10-17T11:11:40.656Z,2484
2016-10-17T11:12:25.756Z,2296
2016-10-17T11:13:25.772Z,2264
2016-10-17T11:15:25.819Z,2352
2016-10-17T11:16:25.967Z,2360
2016-10-17T11:17:25.856Z,2340
2016-10-17T11:18:25.886Z,2284
2016-10-17T11:19:25.910Z,2244
2016-10-17T11:20:25.921Z,2092
2016-10-17T11:21:25.952Z,2016
2016-10-17T11:22:40.892Z,2164
2016-10-17T11:23:25.985Z,2496
2016-10-17T11:24:26.011Z,2724
2016-10-17T11:25:40.953Z,2768
2016-10-17T11:26:26.089Z,2828
2016-10-17T11:27:40.995Z,3008
2016-10-17T11:28:26.090Z,3016
2016-10-17T11:29:41.036Z,3020
2016-10-17T11:30:26.135Z,3036
2016-10-17T11:32:26.182Z,3064
2016-10-17T11:33:26.200Z,3076
2016-10-17T11:34:26.224Z,3240
2016-10-17T11:35:26.239Z,3304
2016-10-17T11:36:26.259Z,3244
2016-10-17T11:38:26.311Z,3244
2016-10-17T11:39:26.326Z,3216
2016-10-17T11:40:26.337Z,3004
2016-10-17T11:41:26.669Z,2752
2016-10-17T11:42:41.312Z,2508
2016-10-17T11:43:26.413Z,2328
2016-10-17T11:45:26.481Z,2292
2016-10-17T11:46:41.397Z,2268
2016-10-17T11:47:26.493Z,2232
2016-10-17T11:48:26.840Z,2244
2016-10-17T11:49:26.541Z,2216
2016-10-17T11:50:26.562Z,2156
2016-10-17T11:51:26.582Z,2048
2016-10-17T11:52:26.601Z,1936
2016-10-17T11:53:26.627Z,1860
2016-10-17T11:54:26.644Z,1824
2016-10-17T11:55:26.663Z,1828
2016-10-17T11:57:26.707Z,1864
2016-10-17T11:58:26.734Z,1824
2016-10-17T11:59:26.755Z,1752
2016-10-17T12:00:41.993Z,1712
2016-10-17T12:01:41.715Z,1680
2016-10-17T12:02:26.812Z,1680
2016-10-17T12:04:26.851Z,1692
2016-10-17T12:06:26.934Z,1684
2016-10-17T12:08:26.985Z,1716
2016-10-17T12:09:26.965Z,1840
2016-10-17T12:10:26.986Z,2052
2016-10-17T12:11:41.927Z,2028
2016-10-17T12:12:27.022Z,1944
2016-10-17T12:13:27.054Z,1916
2016-10-17T12:14:42.021Z,1916
2016-10-17T12:15:27.690Z,1952
2016-10-17T12:16:27.110Z,1972
2016-10-17T12:17:42.057Z,1928
2016-10-17T12:18:27.157Z,1920
2016-10-17T12:20:27.195Z,2052
2016-10-17T12:21:27.221Z,2096
2016-10-17T12:22:27.235Z,2204
2016-10-17T12:23:27.260Z,2240
2016-10-17T12:24:27.533Z,2184
2016-10-17T12:25:27.302Z,2184
2016-10-17T12:26:27.323Z,2172
2016-10-17T12:27:27.335Z,2172
2016-10-17T12:28:27.364Z,2196
2016-10-17T12:29:42.306Z,2296
2016-10-17T12:30:27.407Z,2356
2016-10-17T12:31:27.681Z,2400
2016-10-17T12:32:27.479Z,2356
2016-10-17T12:33:42.390Z,2340
2016-10-17T12:34:27.498Z,2344
2016-10-17T12:35:28.120Z,2336
2016-10-17T12:36:27.529Z,2340
2016-10-17T12:37:27.553Z,2268
2016-10-17T12:38:27.580Z,2320
2016-10-17T12:40:42.542Z,2596
2016-10-17T12:41:27.641Z,2628
2016-10-17T12:42:27.653Z,2564
2016-10-17T12:43:27.684Z,2536
2016-10-17T12:44:27.693Z,2476
2016-10-17T12:45:42.675Z,2336
2016-10-17T12:46:27.740Z,2344
2016-10-17T12:47:27.762Z,2344
2016-10-17T12:48:27.776Z,2280
2016-10-17T12:49:42.724Z,2156
2016-10-17T12:50:27.833Z,2084
2016-10-17T12:51:27.859Z,1936
2016-10-17T12:52:27.866Z,1852
2016-10-17T12:53:27.894Z,1872
2016-10-17T12:55:27.933Z,1956
2016-10-17T12:56:27.954Z,2060
2016-10-17T12:57:27.970Z,2056
2016-10-17T12:58:28.001Z,2016
2016-10-17T12:59:28.012Z,2032
2016-10-17T13:00:28.346Z,1980
2016-10-17T13:02:28.092Z,1788
2016-10-17T13:03:28.106Z,1732
2016-10-17T13:04:43.049Z,1716
2016-10-17T13:05:28.146Z,1712
2016-10-17T13:06:28.163Z,1676
2016-10-17T13:07:28.543Z,1620
2016-10-17T13:08:28.251Z,1584
2016-10-17T13:09:28.482Z,1540
2016-10-17T13:10:43.209Z,1540
2016-10-17T13:11:28.275Z,1508
2016-10-17T13:12:28.297Z,1460
2016-10-17T13:13:28.315Z,1432
2016-10-17T13:14:28.337Z,1444
2016-10-17T13:15:28.351Z,1516
2016-10-17T13:16:28.382Z,1512
2016-10-17T13:17:28.398Z,1476
2016-10-17T13:18:28.440Z,1432
2016-10-17T13:19:28.477Z,1420
2016-10-17T13:20:28.470Z,1376
2016-10-17T13:22:28.510Z,1336
2016-10-17T13:23:28.529Z,1328
2016-10-17T13:24:28.544Z,1328
2016-10-17T13:25:28.567Z,1344
2016-10-17T13:26:28.598Z,1428
2016-10-17T13:27:28.610Z,1476
2016-10-17T13:28:43.558Z,1480
2016-10-17T13:29:28.656Z,1468
2016-10-17T13:30:28.716Z,1508
2016-10-17T13:31:43.624Z,1512
2016-10-17T13:32:28.715Z,1536
2016-10-17T13:33:43.666Z,1664
2016-10-17T13:34:28.765Z,1764
2016-10-17T13:35:28.776Z,1840
2016-10-17T13:36:43.836Z,1928
2016-10-17T13:37:28.824Z,1984
2016-10-17T13:38:28.847Z,1896
2016-10-17T13:39:28.865Z,1980
2016-10-17T13:40:28.882Z,1952
2016-10-17T13:41:28.945Z,1848
2016-10-17T13:42:28.932Z,1848
2016-10-17T13:44:28.972Z,1896
2016-10-17T13:45:43.952Z,1800
2016-10-17T13:46:29.015Z,1900
2016-10-17T13:47:29.038Z,1912
2016-10-17T13:48:29.056Z,1908
2016-10-17T13:49:29.083Z,1904
2016-10-17T13:50:29.099Z,1744
2016-10-17T13:51:29.159Z,1652
2016-10-17T13:52:44.065Z,1668
2016-10-17T13:54:29.181Z,1688
2016-10-17T13:55:29.218Z,1732
2016-10-17T13:56:29.229Z,1792
2016-10-17T13:58:29.277Z,1720
2016-10-17T13:59:29.295Z,1680
2016-10-17T14:00:29.310Z,1652
2016-10-17T14:01:29.381Z,1672
2016-10-17T14:02:29.362Z,1644
2016-10-17T14:03:29.375Z,1596
2016-10-17T14:04:29.430Z,1560
2016-10-17T14:05:29.422Z,1532
2016-10-17T14:06:44.358Z,1476
2016-10-17T14:07:29.468Z,1444
2016-10-17T14:08:44.403Z,1432
2016-10-17T14:09:29.503Z,1440
2016-10-17T14:10:29.576Z,1420
2016-10-17T14:12:29.570Z,1356
2016-10-17T14:13:29.587Z,1328
2016-10-17T14:14:29.607Z,1356
2016-10-17T14:15:29.626Z,1492
2016-10-17T14:16:29.651Z,1500
2016-10-17T14:17:29.676Z,1396
2016-10-17T14:18:29.701Z,1292
2016-10-17T14:19:29.715Z,1208
2016-10-17T14:20:29.736Z,1176
2016-10-17T14:21:29.763Z,1192
2016-10-17T14:22:29.783Z,1204
2016-10-17T14:23:29.802Z,1196
2016-10-17T14:24:44.740Z,1152
2016-10-17T14:25:29.833Z,1096
2016-10-17T14:26:29.858Z,1060
2016-10-17T14:27:29.875Z,1016
2016-10-17T14:28:29.897Z,1004
2016-10-17T14:29:29.923Z,980
2016-10-17T14:30:29.981Z,952
2016-10-17T14:31:29.967Z,924
2016-10-17T14:32:29.982Z,876
2016-10-17T14:33:30.007Z,876
2016-10-17T14:34:30.021Z,860
2016-10-17T14:35:30.349Z,856
2016-10-17T14:36:30.063Z,804
2016-10-17T14:37:30.089Z,800
2016-10-17T14:38:30.109Z,804
2016-10-17T14:39:45.053Z,856
2016-10-17T14:41:30.179Z,900
2016-10-17T14:43:30.222Z,808
2016-10-17T14:44:30.288Z,808
2016-10-17T14:45:30.257Z,828
2016-10-17T14:46:30.279Z,860
2016-10-17T14:47:30.301Z,884
2016-10-17T14:48:30.361Z,860
2016-10-17T14:49:45.265Z,772
2016-10-17T14:50:30.365Z,760
2016-10-17T14:51:30.427Z,748
2016-10-17T14:52:45.323Z,736